Time;durP1;ratioP1;P1;durP2;ratioP2;P2;SDS_P1;SDS_P2;PMS_P1;PMS_P2;Temp;Humidity;BMP_temperature;BMP_pressure;BME280_temperature;BME280_humidity;BME280_pressure;Samples;Min_cycle;Max_cycle;Signal;HPM_P1;HPM_P2
2022/10/15 00:01:39;;;;;;;0.50;0.50;;;13.90;99.90;;;;;;5102199;28;20213;-82
2022/10/15 00:04:05;;;;;;;0.40;0.40;;;13.70;99.90;;;;;;5099924;28;20178;-82
2022/10/15 00:06:30;;;;;;;0.60;0.60;;;13.70;99.90;;;;;;5103026;28;20173;-81
2022/10/15 00:08:56;;;;;;;0.50;0.50;;;13.70;99.90;;;;;;5101845;28;20276;-81
2022/10/15 00:11:24;;;;;;;0.50;0.50;;;13.70;99.90;;;;;;5103922;28;20202;-81
2022/10/15 00:13:52;;;;;;;0.50;0.50;;;13.70;99.90;;;;;;5105800;28;20227;-83
2022/10/15 00:16:20;;;;;;;0.50;0.50;;;13.80;99.90;;;;;;5102443;28;20201;-80
2022/10/15 00:18:47;;;;;;;0.50;0.50;;;13.80;99.90;;;;;;5101826;28;20533;-82
2022/10/15 00:21:15;;;;;;;0.40;0.40;;;13.80;99.90;;;;;;5103152;28;20221;-81
2022/10/15 00:23:40;;;;;;;0.40;0.40;;;13.70;99.90;;;;;;5104438;28;20170;-83
2022/10/15 00:26:09;;;;;;;0.40;0.40;;;13.80;99.90;;;;;;5104505;28;20178;-81
2022/10/15 00:28:35;;;;;;;0.40;0.40;;;13.80;99.90;;;;;;5104304;28;20254;-82
2022/10/15 00:31:03;;;;;;;0.50;0.50;;;13.80;99.90;;;;;;5103460;28;20634;-82
2022/10/15 00:33:29;;;;;;;0.50;0.50;;;13.80;99.90;;;;;;5104763;28;20210;-82
2022/10/15 00:36:07;;;;;;;0.50;0.50;;;13.90;99.90;;;;;;5103090;28;20170;-81
2022/10/15 00:38:34;;;;;;;0.40;0.40;;;13.90;99.90;;;;;;5099208;28;20545;-79
2022/10/15 00:40:59;;;;;;;0.40;0.40;;;13.90;99.90;;;;;;5102795;28;20221;-80
2022/10/15 00:43:53;;;;;;;0.40;0.40;;;13.90;99.90;;;;;;5105401;28;20170;-82
2022/10/15 00:46:27;;;;;;;0.50;0.50;;;13.90;99.90;;;;;;5102193;28;20174;-81
2022/10/15 00:49:02;;;;;;;0.50;0.50;;;13.90;99.90;;;;;;5102890;28;20201;-82
2022/10/15 00:51:36;;;;;;;0.40;0.40;;;14.00;99.90;;;;;;5102208;28;20225;-83
2022/10/15 00:54:02;;;;;;;0.40;0.40;;;14.00;99.90;;;;;;5103265;28;20252;-81
2022/10/15 00:56:32;;;;;;;0.50;0.50;;;14.00;99.90;;;;;;5103258;28;20568;-81
2022/10/15 00:58:58;;;;;;;0.50;0.50;;;14.00;99.90;;;;;;5101476;28;20174;-80
2022/10/15 01:01:24;;;;;;;0.50;0.50;;;14.00;99.90;;;;;;5099831;28;20209;-81
2022/10/15 01:03:51;;;;;;;0.53;0.53;;;14.00;99.90;;;;;;5102959;28;20222;-80
2022/10/15 01:06:17;;;;;;;0.50;0.50;;;14.10;99.90;;;;;;5101664;28;20181;-81
2022/10/15 01:08:43;;;;;;;0.50;0.50;;;14.00;99.90;;;;;;5100598;28;20174;-81
2022/10/15 01:11:16;;;;;;;0.40;0.40;;;14.00;99.90;;;;;;5099974;28;20197;-82
2022/10/15 01:14:08;;;;;;;0.40;0.40;;;14.00;99.90;;;;;;5101908;28;20597;-82
2022/10/15 01:16:50;;;;;;;0.50;0.50;;;14.00;99.90;;;;;;5105799;28;20258;-81
2022/10/15 01:19:46;;;;;;;0.40;0.40;;;14.00;99.90;;;;;;5106751;28;20180;-82
2022/10/15 01:22:31;;;;;;;0.30;0.30;;;14.10;99.90;;;;;;5105495;28;20217;-80
2022/10/15 01:25:37;;;;;;;0.40;0.40;;;14.10;99.90;;;;;;5105793;28;20219;-82
2022/10/15 01:28:27;;;;;;;0.50;0.50;;;14.10;99.90;;;;;;5102944;28;20174;-81
2022/10/15 01:30:59;;;;;;;0.50;0.50;;;14.10;99.90;;;;;;5101926;28;20194;-82
2022/10/15 01:33:42;;;;;;;0.40;0.40;;;14.10;99.90;;;;;;5100741;28;20166;-82
2022/10/15 01:36:25;;;;;;;0.40;0.40;;;14.10;99.90;;;;;;5100807;28;20185;-79
2022/10/15 01:38:59;;;;;;;0.50;0.50;;;14.20;99.90;;;;;;5100812;28;20239;-81
2022/10/15 01:41:38;;;;;;;0.60;0.60;;;14.10;99.90;;;;;;5100098;28;20217;-81
2022/10/15 01:44:10;;;;;;;0.40;0.40;;;14.20;99.90;;;;;;5099471;28;20178;-81
2022/10/15 01:46:44;;;;;;;0.40;0.40;;;14.20;99.90;;;;;;5098812;28;20174;-82
2022/10/15 01:49:12;;;;;;;0.40;0.40;;;14.10;99.90;;;;;;5100112;28;20303;-80
2022/10/15 01:51:41;;;;;;;0.53;0.53;;;14.20;99.90;;;;;;5097518;28;20588;-79
2022/10/15 01:54:11;;;;;;;0.40;0.40;;;14.10;99.90;;;;;;5097588;28;20178;-81
2022/10/15 01:56:37;;;;;;;0.50;0.50;;;14.10;99.90;;;;;;5097399;28;20260;-82
2022/10/15 01:59:04;;;;;;;0.50;0.50;;;14.10;99.90;;;;;;5097803;28;20604;-83
2022/10/15 02:01:29;;;;;;;0.40;0.40;;;14.10;99.90;;;;;;5096919;28;20221;-83
2022/10/15 02:03:55;;;;;;;0.40;0.40;;;14.10;99.90;;;;;;5096432;28;20170;-81
2022/10/15 02:06:36;;;;;;;0.60;0.60;;;14.10;99.90;;;;;;5096878;28;20204;-83
2022/10/15 02:09:15;;;;;;;0.50;0.50;;;14.10;99.90;;;;;;5097127;28;20188;-81
2022/10/15 02:12:09;;;;;;;0.40;0.40;;;14.10;99.90;;;;;;5096978;28;20288;-84
2022/10/15 02:14:58;;;;;;;0.50;0.50;;;14.10;99.90;;;;;;5097148;28;20174;-81
2022/10/15 02:17:36;;;;;;;0.50;0.50;;;14.20;99.90;;;;;;5097379;28;20174;-81
2022/10/15 02:20:14;;;;;;;0.50;0.50;;;14.20;99.90;;;;;;5098027;28;20193;-80
2022/10/15 02:22:46;;;;;;;0.40;0.40;;;14.20;99.90;;;;;;5099230;28;20231;-81
2022/10/15 02:25:17;;;;;;;0.50;0.50;;;14.20;99.90;;;;;;5100755;28;20666;-82
2022/10/15 02:27:46;;;;;;;0.40;0.40;;;14.20;99.90;;;;;;5100533;28;20243;-83
2022/10/15 02:30:12;;;;;;;0.40;0.40;;;14.20;99.90;;;;;;5100503;28;20289;-80
2022/10/15 02:32:39;;;;;;;0.50;0.50;;;14.20;99.90;;;;;;5099390;28;20209;-82
2022/10/15 02:35:08;;;;;;;0.43;0.43;;;14.30;99.90;;;;;;5099606;28;20264;-82
2022/10/15 02:37:34;;;;;;;0.40;0.40;;;14.30;99.90;;;;;;5103909;28;20193;-82
2022/10/15 02:40:00;;;;;;;0.40;0.40;;;14.30;99.90;;;;;;5105166;28;20193;-82
2022/10/15 02:42:26;;;;;;;0.50;0.50;;;14.30;99.90;;;;;;5098944;28;20382;-81
2022/10/15 02:44:52;;;;;;;0.40;0.40;;;14.40;99.90;;;;;;5099291;28;20184;-82
2022/10/15 02:47:18;;;;;;;0.40;0.40;;;14.30;99.90;;;;;;5101817;28;20178;-81
2022/10/15 02:49:43;;;;;;;0.50;0.50;;;14.80;99.90;;;;;;5098936;28;20166;-81
2022/10/15 02:52:09;;;;;;;0.53;0.53;;;14.40;99.90;;;;;;5099986;28;20223;-81
2022/10/15 02:54:35;;;;;;;0.50;0.50;;;14.50;99.90;;;;;;5099744;28;20178;-82
2022/10/15 02:57:00;;;;;;;0.50;0.50;;;14.50;99.90;;;;;;5100451;28;20197;-80
2022/10/15 02:59:26;;;;;;;0.50;0.50;;;14.50;99.90;;;;;;5099107;28;20580;-82
2022/10/15 03:01:51;;;;;;;0.47;0.47;;;14.50;99.90;;;;;;5097430;28;20224;-83
2022/10/15 03:04:17;;;;;;;0.43;0.43;;;14.50;99.90;;;;;;5098219;28;20180;-82
2022/10/15 03:06:42;;;;;;;0.40;0.40;;;14.50;99.90;;;;;;5097099;28;20182;-81
2022/10/15 03:09:08;;;;;;;0.43;0.43;;;14.50;99.90;;;;;;5097220;28;20177;-82
2022/10/15 03:11:33;;;;;;;0.40;0.40;;;14.50;99.90;;;;;;5098482;28;20204;-83
2022/10/15 03:13:59;;;;;;;0.40;0.40;;;14.60;99.90;;;;;;5102882;28;20182;-82
2022/10/15 03:16:25;;;;;;;0.50;0.50;;;14.60;99.90;;;;;;5100698;28;20254;-80
2022/10/15 03:18:50;;;;;;;0.60;0.60;;;14.50;99.90;;;;;;5102408;28;20166;-83
2022/10/15 03:21:16;;;;;;;0.60;0.60;;;14.60;99.90;;;;;;5101995;28;20209;-81
2022/10/15 03:23:41;;;;;;;0.50;0.50;;;14.60;99.90;;;;;;5108175;28;20215;-80
2022/10/15 03:26:07;;;;;;;0.40;0.40;;;14.60;99.90;;;;;;5106142;28;20238;-81
2022/10/15 03:28:32;;;;;;;0.40;0.40;;;14.60;99.90;;;;;;5107722;28;20190;-81
2022/10/15 03:30:58;;;;;;;0.50;0.50;;;14.60;99.90;;;;;;5108084;28;20205;-82
2022/10/15 03:33:24;;;;;;;0.50;0.50;;;14.60;99.90;;;;;;5111806;28;20170;-82
2022/10/15 03:35:51;;;;;;;0.40;0.40;;;14.60;99.90;;;;;;5110660;28;20181;-82
2022/10/15 03:38:17;;;;;;;0.40;0.40;;;14.60;99.90;;;;;;5112564;28;20178;-83
2022/10/15 03:40:44;;;;;;;0.40;0.40;;;14.60;99.90;;;;;;5110308;28;20253;-81
2022/10/15 03:43:09;;;;;;;0.70;0.70;;;14.60;99.90;;;;;;5111441;28;20170;-83
2022/10/15 03:45:35;;;;;;;0.50;0.50;;;14.60;99.90;;;;;;5105564;28;20188;-83
2022/10/15 03:48:00;;;;;;;0.57;0.57;;;14.60;99.90;;;;;;5095604;28;20165;-81
2022/10/15 03:50:26;;;;;;;0.50;0.50;;;14.60;99.90;;;;;;5094682;28;20221;-83
2022/10/15 03:52:52;;;;;;;0.40;0.40;;;14.60;99.90;;;;;;5094517;28;20180;-81
2022/10/15 03:55:17;;;;;;;0.50;0.50;;;14.70;99.90;;;;;;5094406;28;20173;-82
2022/10/15 03:57:43;;;;;;;0.40;0.40;;;14.60;99.90;;;;;;5094261;28;20197;-83
2022/10/15 04:00:10;;;;;;;0.40;0.40;;;14.60;99.90;;;;;;5093986;28;20220;-82
2022/10/15 04:02:36;;;;;;;0.43;0.43;;;14.70;99.90;;;;;;5095201;28;20201;-82
2022/10/15 04:05:02;;;;;;;0.50;0.50;;;15.20;99.90;;;;;;5094658;28;20522;-82
2022/10/15 04:07:27;;;;;;;0.50;0.50;;;14.70;99.90;;;;;;5094788;28;20185;-83
2022/10/15 04:09:53;;;;;;;0.60;0.60;;;14.70;99.90;;;;;;5094310;28;20539;-82
2022/10/15 04:12:18;;;;;;;0.50;0.50;;;14.70;99.90;;;;;;5095086;28;20178;-81
2022/10/15 04:14:44;;;;;;;0.50;0.50;;;14.70;99.90;;;;;;5095570;28;20173;-82
2022/10/15 04:17:10;;;;;;;0.50;0.50;;;14.80;99.90;;;;;;5095277;28;20170;-82
2022/10/15 04:19:35;;;;;;;0.60;0.60;;;15.40;99.90;;;;;;5094701;28;20204;-82
2022/10/15 04:22:02;;;;;;;0.50;0.50;;;14.70;99.90;;;;;;5094528;28;20217;-83
2022/10/15 04:24:28;;;;;;;0.40;0.40;;;14.80;99.90;;;;;;5094238;28;20174;-84
2022/10/15 04:26:53;;;;;;;0.60;0.60;;;14.80;99.90;;;;;;5094673;28;20174;-82
2022/10/15 04:29:19;;;;;;;0.60;0.60;;;14.90;99.90;;;;;;5096057;28;20174;-83
2022/10/15 04:31:44;;;;;;;0.50;0.50;;;14.80;99.90;;;;;;5095884;28;20222;-82
2022/10/15 04:34:10;;;;;;;0.50;0.50;;;14.80;99.90;;;;;;5107281;28;20174;-80
2022/10/15 04:36:36;;;;;;;0.40;0.40;;;14.80;99.90;;;;;;5109752;28;20184;-81
2022/10/15 04:39:03;;;;;;;0.50;0.50;;;14.80;99.90;;;;;;5112235;28;20174;-81
2022/10/15 04:41:29;;;;;;;0.47;0.47;;;14.80;99.90;;;;;;5111521;28;20231;-81
2022/10/15 04:43:56;;;;;;;0.50;0.50;;;14.80;99.90;;;;;;5112559;28;20174;-82
2022/10/15 04:46:21;;;;;;;0.50;0.50;;;14.80;99.90;;;;;;5112453;28;20178;-82
2022/10/15 04:48:47;;;;;;;0.50;0.50;;;14.80;99.90;;;;;;5110545;28;20181;-80
2022/10/15 04:51:17;;;;;;;0.60;0.60;;;14.80;99.90;;;;;;5109554;28;20212;-81
2022/10/15 04:53:43;;;;;;;0.50;0.50;;;14.80;99.90;;;;;;5110803;28;20206;-81
2022/10/15 04:56:16;;;;;;;0.53;0.53;;;14.80;99.90;;;;;;5111528;28;20182;-81
2022/10/15 04:58:43;;;;;;;0.60;0.60;;;14.80;99.90;;;;;;5109720;28;20257;-82
2022/10/15 05:01:12;;;;;;;0.50;0.50;;;14.70;99.90;;;;;;5109129;28;20709;-81
2022/10/15 05:03:39;;;;;;;0.50;0.50;;;14.70;99.90;;;;;;5110113;28;20174;-81
2022/10/15 05:06:16;;;;;;;0.40;0.40;;;14.70;99.90;;;;;;5108850;28;20182;-80
2022/10/15 05:08:42;;;;;;;0.47;0.47;;;14.70;99.90;;;;;;5111171;28;20173;-82
2022/10/15 05:11:13;;;;;;;0.40;0.40;;;14.70;99.90;;;;;;5110837;28;20197;-81
2022/10/15 05:13:39;;;;;;;0.40;0.40;;;14.70;99.90;;;;;;5109955;28;20169;-82
2022/10/15 05:16:09;;;;;;;0.30;0.30;;;14.70;99.90;;;;;;5110899;28;20197;-82
2022/10/15 05:18:34;;;;;;;0.40;0.40;;;14.60;99.90;;;;;;5108945;28;20170;-82
2022/10/15 05:21:00;;;;;;;0.50;0.50;;;14.60;99.90;;;;;;5109065;28;20256;-81
2022/10/15 05:23:26;;;;;;;0.40;0.40;;;14.60;99.90;;;;;;5111152;28;20174;-81
2022/10/15 05:25:52;;;;;;;0.47;0.47;;;14.60;99.90;;;;;;5111841;28;20178;-80
2022/10/15 05:28:18;;;;;;;0.50;0.50;;;14.60;99.90;;;;;;5112270;28;20204;-81
2022/10/15 05:30:43;;;;;;;0.50;0.50;;;14.60;99.90;;;;;;5110787;28;20189;-83
2022/10/15 05:33:08;;;;;;;0.43;0.43;;;14.60;99.90;;;;;;5113818;28;20177;-79
2022/10/15 05:35:34;;;;;;;0.40;0.40;;;14.60;99.90;;;;;;5114402;28;20280;-79
2022/10/15 05:38:00;;;;;;;0.50;0.50;;;14.60;99.90;;;;;;5111222;28;20209;-78
2022/10/15 05:40:25;;;;;;;0.40;0.40;;;14.50;99.90;;;;;;5112800;28;20315;-79
2022/10/15 05:42:52;;;;;;;0.50;0.50;;;14.60;99.90;;;;;;5114171;28;20205;-79
2022/10/15 05:45:17;;;;;;;0.40;0.40;;;14.50;99.90;;;;;;5114894;28;20194;-79
2022/10/15 05:47:43;;;;;;;0.47;0.47;;;14.50;99.90;;;;;;5108409;28;20187;-79
2022/10/15 05:50:09;;;;;;;0.60;0.60;;;14.50;99.90;;;;;;5108517;28;20198;-79
2022/10/15 05:52:34;;;;;;;0.60;0.60;;;14.50;99.90;;;;;;5108320;28;20204;-79
2022/10/15 05:55:00;;;;;;;0.60;0.60;;;14.50;99.90;;;;;;5106474;28;20169;-79
2022/10/15 05:57:25;;;;;;;0.47;0.47;;;14.50;99.90;;;;;;5107465;28;20192;-78
2022/10/15 05:59:51;;;;;;;0.50;0.50;;;14.50;99.90;;;;;;5107764;28;20208;-77
2022/10/15 06:02:16;;;;;;;0.50;0.50;;;14.60;99.90;;;;;;5107969;28;20239;-77
2022/10/15 06:04:42;;;;;;;0.40;0.40;;;14.60;99.90;;;;;;5110806;28;20170;-78
2022/10/15 06:07:07;;;;;;;0.50;0.50;;;14.60;99.90;;;;;;5108591;28;20166;-78
2022/10/15 06:09:34;;;;;;;0.50;0.50;;;14.60;99.90;;;;;;5108986;28;20187;-78
2022/10/15 06:11:59;;;;;;;0.47;0.47;;;14.80;99.90;;;;;;5102762;28;20233;-78
2022/10/15 06:14:25;;;;;;;0.50;0.50;;;14.80;99.90;;;;;;5102272;28;20618;-79
2022/10/15 06:16:53;;;;;;;0.50;0.50;;;14.60;99.90;;;;;;5100861;28;20657;-78
2022/10/15 06:19:19;;;;;;;0.60;0.60;;;14.60;99.90;;;;;;5100297;28;20316;-80
2022/10/15 06:21:44;;;;;;;0.50;0.50;;;14.60;99.90;;;;;;5097107;28;20213;-80
2022/10/15 06:24:10;;;;;;;0.50;0.50;;;14.60;99.90;;;;;;5104821;28;20170;-82
2022/10/15 06:26:36;;;;;;;0.60;0.60;;;14.60;99.90;;;;;;5101912;28;20194;-81
2022/10/15 06:29:01;;;;;;;0.50;0.50;;;14.60;99.90;;;;;;5104047;28;20167;-80
2022/10/15 06:31:27;;;;;;;0.50;0.50;;;14.60;99.90;;;;;;5097324;28;20209;-79
2022/10/15 06:33:52;;;;;;;0.50;0.50;;;14.60;99.90;;;;;;5090305;28;20246;-79
2022/10/15 06:36:18;;;;;;;0.50;0.50;;;14.70;99.90;;;;;;5088551;28;20239;-78
2022/10/15 06:38:46;;;;;;;0.60;0.60;;;14.60;99.90;;;;;;5086593;28;20178;-77
2022/10/15 06:41:12;;;;;;;0.50;0.50;;;14.70;99.90;;;;;;5084056;28;20726;-78
2022/10/15 06:43:38;;;;;;;0.43;0.43;;;14.70;99.90;;;;;;5086842;28;20455;-77
2022/10/15 06:46:05;;;;;;;0.50;0.50;;;14.70;99.90;;;;;;5088245;28;20186;-77
2022/10/15 06:48:31;;;;;;;0.60;0.60;;;14.70;99.90;;;;;;5105991;28;20222;-76
2022/10/15 06:50:58;;;;;;;0.40;0.40;;;14.70;99.90;;;;;;5109590;28;20200;-77
2022/10/15 06:53:24;;;;;;;0.60;0.60;;;14.70;99.90;;;;;;5102568;28;20220;-79
2022/10/15 06:55:49;;;;;;;0.47;0.47;;;14.70;99.90;;;;;;5100797;28;20169;-79
2022/10/15 06:58:15;;;;;;;0.40;0.40;;;14.70;99.90;;;;;;5096526;28;20320;-79
2022/10/15 07:00:40;;;;;;;0.50;0.50;;;14.70;99.90;;;;;;5094421;28;20205;-78
2022/10/15 07:03:06;;;;;;;0.60;0.60;;;14.70;99.90;;;;;;5097025;28;20626;-79
2022/10/15 07:05:33;;;;;;;0.40;0.40;;;14.70;99.90;;;;;;5105438;28;20181;-77
2022/10/15 07:07:59;;;;;;;0.50;0.50;;;14.70;99.90;;;;;;5103548;28;20166;-78
2022/10/15 07:10:26;;;;;;;0.53;0.53;;;14.20;99.90;;;;;;5107145;28;20846;-78
2022/10/15 07:12:53;;;;;;;0.40;0.40;;;14.70;99.90;;;;;;5105631;28;20170;-78
2022/10/15 07:15:20;;;;;;;0.40;0.40;;;14.70;99.90;;;;;;5095789;28;20264;-79
2022/10/15 07:17:55;;;;;;;0.40;0.40;;;14.70;99.90;;;;;;5095843;28;20181;-77
2022/10/15 07:20:21;;;;;;;0.40;0.40;;;14.70;99.90;;;;;;5093450;28;20189;-78
2022/10/15 07:22:47;;;;;;;0.60;0.60;;;14.70;99.90;;;;;;5093696;28;20178;-78
2022/10/15 07:25:13;;;;;;;0.40;0.40;;;14.70;99.90;;;;;;5091838;28;20258;-76
2022/10/15 07:27:39;;;;;;;0.40;0.40;;;14.70;99.90;;;;;;5091725;28;20184;-75
2022/10/15 07:30:07;;;;;;;0.50;0.50;;;14.70;99.90;;;;;;5090773;28;20193;-76
2022/10/15 07:32:34;;;;;;;0.40;0.40;;;14.80;99.90;;;;;;5090897;28;20674;-75
2022/10/15 07:34:59;;;;;;;0.50;0.50;;;14.80;99.90;;;;;;5091616;28;20251;-76
2022/10/15 07:37:25;;;;;;;0.43;0.43;;;14.90;99.90;;;;;;5091319;28;20654;-75
2022/10/15 07:39:50;;;;;;;0.50;0.50;;;14.90;99.90;;;;;;5090912;28;20668;-76
2022/10/15 07:42:16;;;;;;;0.50;0.50;;;15.00;99.90;;;;;;5092776;28;20723;-75
2022/10/15 07:44:41;;;;;;;0.50;0.50;;;15.10;99.90;;;;;;5087459;28;20228;-76
2022/10/15 07:47:07;;;;;;;0.47;0.47;;;15.10;99.90;;;;;;5091418;28;20177;-75
2022/10/15 07:49:32;;;;;;;0.40;0.40;;;15.20;99.90;;;;;;5090857;28;20192;-76
2022/10/15 07:51:58;;;;;;;0.40;0.40;;;15.30;99.90;;;;;;5091465;28;20204;-76
2022/10/15 07:54:24;;;;;;;0.40;0.40;;;15.30;99.90;;;;;;5091339;28;20207;-75
2022/10/15 07:56:49;;;;;;;0.50;0.50;;;15.30;99.90;;;;;;5091940;28;20177;-76
2022/10/15 07:59:15;;;;;;;0.50;0.50;;;15.20;99.90;;;;;;5091566;28;20174;-76
2022/10/15 08:01:40;;;;;;;0.50;0.50;;;15.20;99.90;;;;;;5090837;28;20220;-76
2022/10/15 08:04:06;;;;;;;0.40;0.40;;;15.20;99.90;;;;;;5091082;28;20174;-76
2022/10/15 08:06:31;;;;;;;0.40;0.40;;;15.20;99.90;;;;;;5089986;28;20185;-75
2022/10/15 08:08:57;;;;;;;0.30;0.30;;;15.20;99.90;;;;;;5091080;28;20177;-76
2022/10/15 08:11:23;;;;;;;0.40;0.40;;;15.30;99.90;;;;;;5092499;28;20288;-74
2022/10/15 08:13:48;;;;;;;0.40;0.40;;;15.40;99.90;;;;;;5095059;28;20192;-76
2022/10/15 08:16:15;;;;;;;0.40;0.40;;;15.40;99.90;;;;;;5095065;28;20185;-76
2022/10/15 08:18:41;;;;;;;0.40;0.40;;;15.50;99.90;;;;;;5095325;28;20257;-76
2022/10/15 08:21:07;;;;;;;0.40;0.40;;;15.50;99.90;;;;;;5094556;28;20312;-76
2022/10/15 08:23:33;;;;;;;0.50;0.50;;;15.50;99.90;;;;;;5095206;28;20200;-76
2022/10/15 08:25:59;;;;;;;0.40;0.40;;;15.40;99.90;;;;;;5095199;28;20246;-75
2022/10/15 08:28:29;;;;;;;0.40;0.40;;;15.50;99.90;;;;;;5095321;28;20212;-76
2022/10/15 08:31:02;;;;;;;0.40;0.40;;;15.40;99.90;;;;;;5094665;28;20220;-75
2022/10/15 08:33:28;;;;;;;0.40;0.40;;;15.50;99.90;;;;;;5095366;28;20260;-76
2022/10/15 08:35:54;;;;;;;0.50;0.50;;;15.50;99.90;;;;;;5094794;28;20197;-76
2022/10/15 08:38:20;;;;;;;0.40;0.40;;;15.60;99.90;;;;;;5094664;28;20260;-76
2022/10/15 08:43:35;;;;;;;0.40;0.40;;;15.70;99.90;;;;;;5092665;28;20212;-76
2022/10/15 08:46:08;;;;;;;0.40;0.40;;;15.70;99.90;;;;;;5095571;28;20688;-78
2022/10/15 08:48:39;;;;;;;0.40;0.40;;;15.80;99.90;;;;;;5094912;28;20227;-77
2022/10/15 08:51:10;;;;;;;0.33;0.33;;;15.80;99.90;;;;;;5094086;28;20193;-78
2022/10/15 08:53:42;;;;;;;0.30;0.30;;;15.90;99.90;;;;;;5095140;28;20211;-77
2022/10/15 08:56:20;;;;;;;0.40;0.40;;;16.10;99.90;;;;;;5094836;28;20181;-75
2022/10/15 08:58:56;;;;;;;0.40;0.40;;;16.00;99.90;;;;;;5094512;28;20170;-75
2022/10/15 09:01:33;;;;;;;0.40;0.40;;;16.00;99.90;;;;;;5094015;28;20550;-75
2022/10/15 09:04:26;;;;;;;0.40;0.40;;;16.10;99.90;;;;;;5095836;28;20230;-77
2022/10/15 09:07:02;;;;;;;0.40;0.40;;;16.20;99.90;;;;;;5083946;28;20188;-76
2022/10/15 09:10:00;;;;;;;0.50;0.50;;;16.30;99.90;;;;;;5090173;28;20557;-79
2022/10/15 09:12:46;;;;;;;0.40;0.40;;;16.40;99.90;;;;;;5046044;28;20189;-76
2022/10/15 09:15:15;;;;;;;0.40;0.40;;;16.50;99.90;;;;;;5094374;28;20184;-76
2022/10/15 09:17:42;;;;;;;0.40;0.40;;;16.60;99.90;;;;;;5094194;28;20607;-77
2022/10/15 09:20:20;;;;;;;0.40;0.40;;;16.60;99.90;;;;;;5093573;28;20209;-77
2022/10/15 09:22:50;;;;;;;0.33;0.33;;;16.60;99.90;;;;;;5082200;28;20622;-77
2022/10/15 09:25:22;;;;;;;0.30;0.30;;;16.80;99.90;;;;;;5083142;28;20173;-77
2022/10/15 09:27:50;;;;;;;0.40;0.40;;;16.90;99.90;;;;;;5083049;28;20575;-76
2022/10/15 09:30:46;;;;;;;0.40;0.40;;;17.00;99.90;;;;;;5082174;28;20276;-78
2022/10/15 09:33:36;;;;;;;0.30;0.30;;;17.70;99.90;;;;;;5073919;28;20175;-77
2022/10/15 09:36:44;;;;;;;0.43;0.43;;;17.90;99.90;;;;;;5074248;28;20185;-78
2022/10/15 09:39:22;;;;;;;0.40;0.40;;;18.00;99.90;;;;;;5074084;28;20677;-77
2022/10/15 09:42:29;;;;;;;0.40;0.40;;;18.60;99.90;;;;;;5073561;28;20801;-77
2022/10/15 09:45:00;;;;;;;0.40;0.40;;;18.30;99.90;;;;;;5073060;28;20181;-76
2022/10/15 09:47:29;;;;;;;0.40;0.40;;;18.20;99.90;;;;;;5073270;28;20174;-76
2022/10/15 09:49:55;;;;;;;0.50;0.50;;;18.10;99.90;;;;;;5072962;28;20171;-77
2022/10/15 09:53:14;;;;;;;0.30;0.30;;;18.10;99.90;;;;;;5073681;28;20178;-78
2022/10/15 09:55:48;;;;;;;0.40;0.40;;;18.30;99.90;;;;;;4972951;28;20197;-84
2022/10/15 09:58:32;;;;;;;0.30;0.30;;;19.50;1.00;;;;;;4976126;28;20212;-77
2022/10/15 10:01:04;;;;;;;0.40;0.40;;;19.80;1.00;;;;;;5050107;28;20214;-78
2022/10/15 10:03:32;;;;;;;0.43;0.43;;;20.40;1.00;;;;;;5074260;28;20614;-77
2022/10/15 10:06:03;;;;;;;0.37;0.37;;;19.60;1.00;;;;;;5079335;28;20223;-76
2022/10/15 10:08:37;;;;;;;0.40;0.40;;;20.20;1.00;;;;;;5074808;28;20178;-77
2022/10/15 10:11:07;;;;;;;0.50;0.50;;;20.60;1.00;;;;;;5072896;28;20646;-78
2022/10/15 10:13:49;;;;;;;0.40;0.40;;;22.00;99.90;;;;;;5083815;28;20181;-79
2022/10/15 10:16:17;;;;;;;0.50;0.50;;;22.90;1.00;;;;;;5082696;28;20535;-76
2022/10/15 10:18:49;;;;;;;0.40;0.40;;;23.40;99.90;;;;;;5082404;28;20170;-75
2022/10/15 10:21:22;;;;;;;0.50;0.50;;;22.90;1.00;;;;;;5081875;28;20712;-77
2022/10/15 10:23:48;;;;;;;0.67;0.67;;;23.60;99.90;;;;;;5085842;28;20296;-78
2022/10/15 10:26:14;;;;;;;0.60;0.60;;;23.60;99.90;;;;;;5079156;28;20202;-81
2022/10/15 10:28:51;;;;;;;0.70;0.70;;;23.30;1.00;;;;;;5078069;28;20201;-77
2022/10/15 10:31:25;;;;;;;0.60;0.60;;;22.40;99.90;;;;;;5080551;28;20194;-78
2022/10/15 10:33:51;;;;;;;0.60;0.60;;;22.20;99.90;;;;;;5092076;28;20178;-77
2022/10/15 10:36:29;;;;;;;0.50;0.50;;;23.20;99.90;;;;;;5084326;28;20200;-78
2022/10/15 10:39:13;;;;;;;0.50;0.50;;;23.90;99.90;;;;;;5085470;28;20178;-79
2022/10/15 10:41:55;;;;;;;0.60;0.60;;;23.30;99.90;;;;;;5084071;28;20209;-77
2022/10/15 10:44:38;;;;;;;0.60;0.60;;;23.90;99.90;;;;;;5086181;28;20171;-77
2022/10/15 10:47:11;;;;;;;0.70;0.70;;;23.30;99.90;;;;;;5100117;28;20578;-77
2022/10/15 10:49:39;;;;;;;0.60;0.60;;;24.40;88.50;;;;;;5079598;28;20187;-77
2022/10/15 10:52:17;;;;;;;0.60;0.60;;;24.10;97.40;;;;;;5072371;28;20174;-77
2022/10/15 10:54:43;;;;;;;0.63;0.63;;;23.90;99.90;;;;;;5080454;28;20189;-78
2022/10/15 10:57:12;;;;;;;0.50;0.50;;;21.40;1.00;;;;;;5079890;28;20177;-77
2022/10/15 10:59:51;;;;;;;0.50;0.50;;;20.60;1.00;;;;;;5085424;28;20280;-78
2022/10/15 11:02:16;;;;;;;0.30;0.30;;;22.10;99.90;;;;;;5075819;28;20245;-77
2022/10/15 11:04:42;;;;;;;0.43;0.43;;;21.90;99.90;;;;;;5091108;28;20171;-78
2022/10/15 11:07:29;;;;;;;0.40;0.40;;;21.00;95.50;;;;;;5082643;28;20178;-79
2022/10/15 11:10:10;;;;;;;0.47;0.47;;;20.60;99.90;;;;;;5077778;28;20602;-79
2022/10/15 11:12:57;;;;;;;0.40;0.40;;;19.80;1.00;;;;;;5078775;28;20170;-80
2022/10/15 11:15:56;;;;;;;0.57;0.57;;;19.50;1.00;;;;;;5084354;28;20247;-78
2022/10/15 11:18:54;;;;;;;0.40;0.40;;;19.40;1.00;;;;;;5087919;28;20190;-78
2022/10/15 11:21:40;;;;;;;0.30;0.30;;;19.50;1.00;;;;;;5076968;28;20198;-76
2022/10/15 11:24:21;;;;;;;0.30;0.30;;;20.00;1.00;;;;;;5054736;28;20251;-78
2022/10/15 11:27:06;;;;;;;0.40;0.40;;;22.00;1.00;;;;;;5079095;28;20752;-77
2022/10/15 11:29:54;;;;;;;0.50;0.50;;;20.10;64.60;;;;;;5082642;28;20166;-77
2022/10/15 11:32:36;;;;;;;0.40;0.40;;;19.60;1.00;;;;;;5089502;28;20560;-76
2022/10/15 11:35:49;;;;;;;0.47;0.47;;;19.50;99.90;;;;;;5077781;28;20170;-76
2022/10/15 11:38:51;;;;;;;0.40;0.40;;;19.70;99.90;;;;;;5011789;28;20957;-77
2022/10/15 11:41:55;;;;;;;0.53;0.53;;;19.30;99.90;;;;;;5017412;28;20216;-76
2022/10/15 11:44:23;;;;;;;0.30;0.30;;;19.20;1.00;;;;;;5089249;28;20181;-79
2022/10/15 11:47:00;;;;;;;0.33;0.33;;;19.40;99.90;;;;;;5105125;28;20236;-78
2022/10/15 11:49:44;;;;;;;0.40;0.40;;;19.20;99.90;;;;;;5097734;28;20173;-78
2022/10/15 11:52:39;;;;;;;0.30;0.30;;;19.10;99.90;;;;;;5091564;28;20173;-80
2022/10/15 11:55:11;;;;;;;0.40;0.40;;;19.10;1.00;;;;;;5091717;28;20188;-79
2022/10/15 11:57:39;;;;;;;0.37;0.37;;;19.20;99.90;;;;;;5089891;28;20170;-78
2022/10/15 12:00:29;;;;;;;0.40;0.40;;;19.00;99.90;;;;;;5095951;28;20201;-78
2022/10/15 12:02:59;;;;;;;0.50;0.50;;;18.80;99.90;;;;;;5089619;28;20178;-77
2022/10/15 12:05:55;;;;;;;0.40;0.40;;;18.80;99.90;;;;;;5088001;28;20178;-79
2022/10/15 12:08:25;;;;;;;0.40;0.40;;;19.00;99.90;;;;;;5087171;28;20170;-78
2022/10/15 12:11:12;;;;;;;0.30;0.30;;;19.40;1.00;;;;;;5089761;28;20194;-78
2022/10/15 12:13:43;;;;;;;0.43;0.43;;;19.90;99.90;;;;;;5087775;28;20259;-78
2022/10/15 12:16:12;;;;;;;0.40;0.40;;;19.40;1.00;;;;;;5090539;28;20235;-78
2022/10/15 12:18:49;;;;;;;0.37;0.37;;;19.30;1.00;;;;;;5089641;28;20182;-77
2022/10/15 12:21:33;;;;;;;0.50;0.50;;;19.30;99.90;;;;;;5088422;28;20252;-79
2022/10/15 12:23:59;;;;;;;0.40;0.40;;;19.20;99.90;;;;;;5081258;28;20198;-77
2022/10/15 12:26:31;;;;;;;0.30;0.30;;;19.10;99.90;;;;;;5078395;28;20179;-80
2022/10/15 12:28:59;;;;;;;0.40;0.40;;;18.90;99.90;;;;;;5079246;28;20570;-78
2022/10/15 12:31:24;;;;;;;0.40;0.40;;;18.80;1.00;;;;;;5082370;28;20203;-83
2022/10/15 12:33:51;;;;;;;0.30;0.30;;;18.70;1.00;;;;;;5090038;28;20636;-79
2022/10/15 12:36:29;;;;;;;0.33;0.33;;;18.60;99.90;;;;;;5076710;28;20182;-78
2022/10/15 12:39:03;;;;;;;0.40;0.40;;;18.70;1.00;;;;;;5084067;28;20182;-78
2022/10/15 12:41:39;;;;;;;0.40;0.40;;;18.60;1.00;;;;;;5083258;28;20715;-77
2022/10/15 12:44:14;;;;;;;0.40;0.40;;;18.40;1.00;;;;;;5075945;28;20182;-78
2022/10/15 12:46:40;;;;;;;0.50;0.50;;;18.20;99.90;;;;;;5085046;28;20586;-81
2022/10/15 12:49:29;;;;;;;0.40;0.40;;;18.10;1.00;;;;;;5088191;28;20217;-81
2022/10/15 12:51:59;;;;;;;0.50;0.50;;;18.00;1.00;;;;;;5083452;28;20193;-78
2022/10/15 12:54:44;;;;;;;0.40;0.40;;;17.80;1.00;;;;;;5087901;28;20170;-79
2022/10/15 12:57:33;;;;;;;0.40;0.40;;;17.80;1.00;;;;;;5083443;28;20209;-79
2022/10/15 13:00:00;;;;;;;0.40;0.40;;;17.60;1.00;;;;;;5072624;28;20256;-79
2022/10/15 13:02:39;;;;;;;0.40;0.40;;;17.60;1.00;;;;;;5081183;28;20677;-79
2022/10/15 13:05:08;;;;;;;0.50;0.50;;;17.60;1.00;;;;;;5080228;28;20182;-78
2022/10/15 13:07:39;;;;;;;0.50;0.50;;;17.70;1.00;;;;;;5082249;28;20174;-79
2022/10/15 13:10:21;;;;;;;0.50;0.50;;;17.70;1.00;;;;;;5072342;28;20198;-79
2022/10/15 13:12:56;;;;;;;0.47;0.47;;;17.70;1.00;;;;;;5084699;28;20307;-79